createdAt,value
2023-03-06T00:00:52.482Z,10.90
2023-03-06T00:03:47.872Z,10.90
2023-03-06T00:06:17.130Z,10.90
2023-03-06T00:08:46.251Z,10.90
2023-03-06T00:11:15.837Z,10.80
2023-03-06T00:13:45.054Z,10.90
2023-03-06T00:16:14.507Z,10.90
2023-03-06T00:18:44.332Z,10.80
2023-03-06T00:21:14.995Z,10.80
2023-03-06T00:23:44.079Z,10.90
2023-03-06T00:26:13.149Z,10.90
2023-03-06T00:28:44.174Z,10.90
2023-03-06T00:31:13.633Z,11.10
2023-03-06T00:33:43.684Z,11.10
2023-03-06T00:36:14.163Z,11.00
2023-03-06T00:38:43.306Z,11.00
2023-03-06T00:41:13.557Z,10.90
2023-03-06T00:43:43.479Z,11.10
2023-03-06T00:46:13.098Z,11.00
2023-03-06T00:48:42.280Z,10.90
2023-03-06T00:51:13.857Z,10.90
2023-03-06T00:53:44.731Z,11.00
2023-03-06T00:56:13.679Z,11.00
2023-03-06T00:58:43.689Z,10.90
2023-03-06T01:01:13.024Z,10.80
2023-03-06T01:03:42.085Z,10.70
2023-03-06T01:06:11.061Z,10.70
2023-03-06T01:08:40.230Z,10.70
2023-03-06T01:11:10.696Z,10.80
2023-03-06T01:13:39.756Z,10.80
2023-03-06T01:16:10.651Z,10.80
2023-03-06T01:18:41.995Z,10.90
2023-03-06T01:21:11.495Z,11.10
2023-03-06T01:23:40.584Z,11.00
2023-03-06T01:26:11.284Z,10.90
2023-03-06T01:28:40.898Z,10.90
2023-03-06T01:31:10.741Z,10.80
2023-03-06T01:33:40.218Z,10.80
2023-03-06T01:36:11.431Z,10.90
2023-03-06T01:38:40.769Z,10.80
2023-03-06T01:41:15.893Z,10.70
2023-03-06T01:43:46.653Z,10.70
2023-03-06T01:46:42.119Z,10.60
2023-03-06T01:49:17.045Z,10.60
2023-03-06T01:51:51.425Z,10.60
2023-03-06T01:54:25.633Z,10.70
2023-03-06T01:57:01.192Z,10.70
2023-03-06T01:59:31.579Z,10.60
2023-03-06T02:02:03.416Z,10.60
2023-03-06T02:04:33.521Z,10.60
2023-03-06T02:07:04.983Z,10.60
2023-03-06T02:09:37.501Z,10.60
2023-03-06T02:12:12.496Z,10.60
2023-03-06T02:14:44.070Z,10.60
2023-03-06T02:17:15.492Z,10.60
2023-03-06T02:19:54.022Z,10.60
2023-03-06T02:22:25.920Z,10.50
2023-03-06T02:24:59.831Z,10.50
2023-03-06T02:27:30.814Z,10.60
2023-03-06T02:30:00.017Z,10.50
2023-03-06T02:32:29.289Z,10.60
2023-03-06T02:34:59.746Z,10.60
2023-03-06T02:37:30.842Z,10.70
2023-03-06T02:40:10.354Z,10.60
2023-03-06T02:42:47.914Z,10.70
2023-03-06T02:45:21.980Z,10.60
2023-03-06T02:47:51.092Z,10.60
2023-03-06T02:50:20.268Z,10.60
2023-03-06T02:52:50.302Z,10.60
2023-03-06T02:55:19.788Z,10.60
2023-03-06T02:57:50.476Z,10.60
2023-03-06T03:00:20.799Z,10.70
2023-03-06T03:02:50.052Z,10.80
2023-03-06T03:05:19.497Z,11.20
2023-03-06T03:07:53.906Z,11.10
2023-03-06T03:10:23.279Z,10.80
2023-03-06T03:12:53.785Z,11.00
2023-03-06T03:15:23.390Z,11.10
2023-03-06T03:17:52.706Z,11.20
2023-03-06T03:20:24.287Z,11.30
2023-03-06T03:22:55.653Z,11.20
2023-03-06T03:25:26.886Z,11.20
2023-03-06T03:28:00.158Z,11.20
2023-03-06T03:30:29.431Z,11.40
2023-03-06T03:32:59.307Z,11.50
2023-03-06T03:35:29.191Z,11.50
2023-03-06T03:37:59.023Z,11.40
2023-03-06T03:40:28.682Z,11.40
2023-03-06T03:43:00.245Z,11.50
2023-03-06T03:45:29.617Z,11.30
2023-03-06T03:47:58.859Z,11.00
2023-03-06T03:50:28.238Z,10.90
2023-03-06T03:52:57.863Z,11.00
2023-03-06T03:55:27.041Z,11.10
2023-03-06T03:57:56.325Z,11.30
2023-03-06T04:00:27.083Z,11.50
2023-03-06T04:03:07.373Z,11.60
2023-03-06T04:05:40.463Z,11.60
2023-03-06T04:08:11.205Z,11.50
2023-03-06T04:10:43.912Z,11.50
2023-03-06T04:13:14.491Z,11.50
2023-03-06T04:15:47.174Z,11.60
2023-03-06T04:18:16.823Z,11.60
2023-03-06T04:20:48.933Z,11.60
2023-03-06T04:23:19.140Z,11.70
2023-03-06T04:25:49.101Z,11.70
2023-03-06T04:28:18.929Z,11.90
2023-03-06T04:30:49.573Z,12.00
2023-03-06T04:33:19.512Z,12.10
2023-03-06T04:35:48.664Z,12.10
2023-03-06T04:38:23.293Z,12.10
2023-03-06T04:40:52.469Z,12.10
2023-03-06T04:43:21.641Z,12.20
2023-03-06T04:45:52.256Z,12.10
2023-03-06T04:48:21.764Z,12.10
2023-03-06T04:50:50.730Z,12.10
2023-03-06T04:53:21.542Z,12.00
2023-03-06T04:55:50.998Z,12.10
2023-03-06T04:58:20.919Z,12.10
2023-03-06T05:00:51.503Z,12.10
2023-03-06T05:03:20.504Z,11.90
2023-03-06T05:05:49.562Z,11.80
2023-03-06T05:08:19.531Z,11.80
2023-03-06T05:10:54.614Z,11.70
2023-03-06T05:13:23.825Z,11.80
2023-03-06T05:15:54.456Z,11.80
2023-03-06T05:18:23.801Z,11.80
2023-03-06T05:20:52.948Z,11.70
2023-03-06T05:23:22.685Z,11.70
2023-03-06T05:25:51.710Z,11.80
2023-03-06T05:28:20.988Z,11.60
2023-03-06T05:30:50.197Z,11.50
2023-03-06T05:33:20.727Z,11.30
2023-03-06T05:35:50.338Z,11.00
2023-03-06T05:38:20.495Z,10.80
2023-03-06T05:40:49.450Z,10.80
2023-03-06T05:43:18.666Z,10.90
2023-03-06T05:45:47.695Z,10.80
2023-03-06T05:48:16.884Z,10.80
2023-03-06T05:50:47.299Z,10.70
2023-03-06T05:53:16.356Z,10.80
2023-03-06T05:55:45.594Z,10.80
2023-03-06T05:58:14.645Z,10.40
2023-03-06T06:00:43.622Z,10.60
2023-03-06T06:03:12.782Z,10.70
2023-03-06T06:05:42.000Z,10.70
2023-03-06T06:08:12.532Z,10.70
2023-03-06T06:10:41.636Z,10.70
2023-03-06T06:13:11.176Z,10.80
2023-03-06T06:15:40.476Z,10.80
2023-03-06T06:18:09.591Z,10.80
2023-03-06T06:20:39.331Z,10.90
2023-03-06T06:23:08.770Z,10.80
2023-03-06T06:25:40.025Z,10.80
2023-03-06T06:28:09.274Z,10.80
2023-03-06T06:30:38.581Z,10.80
2023-03-06T06:33:07.803Z,10.80
2023-03-06T06:35:38.455Z,10.70
2023-03-06T06:38:07.847Z,10.80
2023-03-06T06:40:38.455Z,11.00
2023-03-06T06:43:07.543Z,10.90
2023-03-06T06:45:36.537Z,11.00
2023-03-06T06:48:05.936Z,11.00
2023-03-06T06:50:35.137Z,11.10
2023-03-06T06:53:04.409Z,10.90
2023-03-06T06:55:33.450Z,11.00
2023-03-06T06:58:03.976Z,10.80
2023-03-06T07:00:33.187Z,11.10
2023-03-06T07:03:02.203Z,11.00
2023-03-06T07:05:31.413Z,11.00
2023-03-06T07:08:00.458Z,11.10
2023-03-06T07:10:29.552Z,11.10
2023-03-06T07:12:58.728Z,11.00
2023-03-06T07:15:31.007Z,11.00
2023-03-06T07:18:01.759Z,11.10
2023-03-06T07:20:32.127Z,11.00
2023-03-06T07:23:01.374Z,10.90
2023-03-06T07:25:31.040Z,10.90
2023-03-06T07:28:00.576Z,10.90
2023-03-06T07:30:31.219Z,10.90
2023-03-06T07:33:01.093Z,11.10
2023-03-06T07:35:30.186Z,11.10
2023-03-06T07:37:59.762Z,11.20
2023-03-06T07:40:29.129Z,11.20
2023-03-06T07:43:16.867Z,11.20
2023-03-06T07:45:59.014Z,11.30
2023-03-06T07:48:28.475Z,11.40
2023-03-06T07:50:59.210Z,11.40
2023-03-06T07:53:28.614Z,11.40
2023-03-06T07:55:58.938Z,11.50
2023-03-06T07:58:28.689Z,11.60
2023-03-06T08:00:59.069Z,11.60
2023-03-06T08:03:28.720Z,11.80
2023-03-06T08:06:06.990Z,11.70
2023-03-06T08:08:36.373Z,11.90
2023-03-06T08:11:05.881Z,11.90
2023-03-06T08:13:35.171Z,11.90
2023-03-06T08:16:06.257Z,12.10
2023-03-06T08:18:35.873Z,12.20
2023-03-06T08:21:06.380Z,12.30
2023-03-06T08:23:36.965Z,12.40
2023-03-06T08:26:08.423Z,12.60
2023-03-06T08:28:38.025Z,12.80
2023-03-06T08:31:13.465Z,12.60
2023-03-06T08:33:43.132Z,12.80
2023-03-06T08:36:12.150Z,12.90
2023-03-06T08:38:41.805Z,12.90
2023-03-06T08:41:11.178Z,13.10
2023-03-06T08:43:40.577Z,13.00
2023-03-06T08:46:12.393Z,12.90
2023-03-06T08:48:42.062Z,13.00
2023-03-06T08:51:11.385Z,13.20
2023-03-06T08:53:43.406Z,13.10
2023-03-06T08:56:18.363Z,13.30
2023-03-06T08:58:47.985Z,13.10
2023-03-06T09:01:19.814Z,13.10
2023-03-06T09:03:49.395Z,13.10
2023-03-06T09:06:18.644Z,13.10
2023-03-06T09:08:47.775Z,13.40
2023-03-06T09:11:17.877Z,13.40
2023-03-06T09:13:47.100Z,13.50
2023-03-06T09:16:17.987Z,13.50
2023-03-06T09:18:47.122Z,13.50
2023-03-06T09:21:16.395Z,13.50
2023-03-06T09:23:45.890Z,13.50
2023-03-06T09:26:15.115Z,13.60
2023-03-06T09:28:44.392Z,13.50
2023-03-06T09:31:15.655Z,13.40
2023-03-06T09:33:46.790Z,13.50
2023-03-06T09:36:18.651Z,13.60
2023-03-06T09:38:50.147Z,13.70
2023-03-06T09:41:27.671Z,13.90
2023-03-06T09:44:04.992Z,13.80
2023-03-06T09:46:48.808Z,13.90
2023-03-06T09:49:39.660Z,13.70
2023-03-06T09:52:24.997Z,13.80
2023-03-06T09:54:57.012Z,13.50
2023-03-06T09:57:28.721Z,13.70
2023-03-06T10:00:03.492Z,13.80
2023-03-06T10:02:38.839Z,13.90
2023-03-06T10:05:15.047Z,13.80
2023-03-06T10:07:47.737Z,13.70
2023-03-06T10:10:23.638Z,13.40
2023-03-06T10:13:04.891Z,13.30
2023-03-06T10:15:36.385Z,13.50
2023-03-06T10:18:06.727Z,13.40
2023-03-06T10:20:46.258Z,13.80
2023-03-06T10:23:42.985Z,13.80
2023-03-06T10:26:18.259Z,13.80
2023-03-06T10:28:54.810Z,13.80
2023-03-06T10:31:25.922Z,13.90
2023-03-06T10:33:56.936Z,14.10
2023-03-06T10:36:29.976Z,14.20
2023-03-06T10:39:00.318Z,14.30
2023-03-06T10:41:30.722Z,14.20
2023-03-06T10:44:20.706Z,14.20
2023-03-06T10:46:52.677Z,14.20
2023-03-06T10:49:31.295Z,14.20
2023-03-06T10:52:05.764Z,13.90
2023-03-06T10:54:37.014Z,13.90
2023-03-06T10:57:21.191Z,14.10
2023-03-06T10:59:55.372Z,14.30
2023-03-06T11:02:31.012Z,14.30
2023-03-06T11:05:01.788Z,14.20
2023-03-06T11:07:34.064Z,14.20
2023-03-06T11:10:07.795Z,14.40
2023-03-06T11:12:38.006Z,14.30
2023-03-06T11:15:18.718Z,14.30
2023-03-06T11:17:53.856Z,14.70
2023-03-06T11:20:25.723Z,14.80
2023-03-06T11:22:59.825Z,14.80
2023-03-06T11:25:34.396Z,14.80
2023-03-06T11:28:07.709Z,15.00
2023-03-06T11:30:44.886Z,14.90
2023-03-06T11:33:21.150Z,15.10
2023-03-06T11:35:59.581Z,14.80
2023-03-06T11:38:40.936Z,15.00
2023-03-06T11:41:19.652Z,15.20
2023-03-06T11:43:56.544Z,15.30
2023-03-06T11:46:29.802Z,15.20
2023-03-06T11:49:07.680Z,15.20
2023-03-06T11:51:41.654Z,14.80
2023-03-06T11:54:15.148Z,14.80
2023-03-06T11:56:54.143Z,14.60
2023-03-06T11:59:50.890Z,14.70
2023-03-06T12:02:39.808Z,15.00
2023-03-06T12:05:33.361Z,15.10
2023-03-06T12:08:16.390Z,15.00
2023-03-06T12:10:51.894Z,15.00
2023-03-06T12:13:30.798Z,15.10
2023-03-06T12:16:24.623Z,15.00
2023-03-06T12:19:03.651Z,15.20
2023-03-06T12:21:42.091Z,15.00
2023-03-06T12:24:30.702Z,15.00
2023-03-06T12:27:14.821Z,15.20
2023-03-06T12:30:14.933Z,14.90
2023-03-06T12:32:51.139Z,15.00
2023-03-06T12:35:34.135Z,14.80
2023-03-06T12:38:17.934Z,14.80
2023-03-06T12:41:18.304Z,14.50
2023-03-06T12:44:21.248Z,14.70
2023-03-06T12:46:56.415Z,14.90
2023-03-06T12:49:32.980Z,14.90
2023-03-06T12:52:03.673Z,15.10
2023-03-06T12:54:36.640Z,15.40
2023-03-06T12:57:09.115Z,15.40
2023-03-06T12:59:47.478Z,15.50
2023-03-06T13:02:47.708Z,15.40
2023-03-06T13:05:34.654Z,15.20
2023-03-06T13:08:33.037Z,15.00
2023-03-06T13:11:20.768Z,15.10
2023-03-06T13:13:51.232Z,15.50
2023-03-06T13:16:35.439Z,15.40
2023-03-06T13:19:11.619Z,15.60
2023-03-06T13:22:03.789Z,15.40
2023-03-06T13:24:35.085Z,15.00
2023-03-06T13:27:07.336Z,15.10
2023-03-06T13:30:22.149Z,14.90
2023-03-06T13:32:54.476Z,14.80
2023-03-06T13:35:52.660Z,14.90
2023-03-06T13:38:36.691Z,14.90
2023-03-06T13:41:28.466Z,14.80
2023-03-06T13:43:59.480Z,15.00
2023-03-06T13:46:31.131Z,15.20
2023-03-06T13:49:24.465Z,15.40
2023-03-06T13:52:08.382Z,15.20
2023-03-06T13:54:52.677Z,15.40
2023-03-06T13:57:44.219Z,16.00
2023-03-06T14:00:32.816Z,15.90
2023-03-06T14:03:31.563Z,15.90
2023-03-06T14:06:02.861Z,15.60
2023-03-06T14:08:34.599Z,15.50
2023-03-06T14:11:06.207Z,15.30
2023-03-06T14:13:47.208Z,15.20
2023-03-06T14:16:22.062Z,15.00
2023-03-06T14:18:53.464Z,14.90
2023-03-06T14:21:31.472Z,15.10
2023-03-06T14:24:01.587Z,14.80
2023-03-06T14:26:34.396Z,14.80
2023-03-06T14:29:04.474Z,15.10
2023-03-06T14:31:35.773Z,15.10
2023-03-06T14:34:08.305Z,14.90
2023-03-06T14:36:45.899Z,14.60
2023-03-06T14:39:19.892Z,14.60
2023-03-06T14:41:49.113Z,14.90
2023-03-06T14:44:20.248Z,15.10
2023-03-06T14:46:51.823Z,15.30
2023-03-06T14:49:22.247Z,15.20
2023-03-06T14:51:54.581Z,14.90
2023-03-06T14:54:27.392Z,14.80
2023-03-06T14:57:02.030Z,14.80
2023-03-06T14:59:34.375Z,14.70
2023-03-06T15:02:07.891Z,14.50
2023-03-06T15:04:42.704Z,14.60
2023-03-06T15:07:15.986Z,14.70
2023-03-06T15:09:48.758Z,14.60
2023-03-06T15:12:38.921Z,14.60
2023-03-06T15:15:31.368Z,14.60
2023-03-06T15:18:00.958Z,14.80
2023-03-06T15:20:45.745Z,14.70
2023-03-06T15:23:23.346Z,14.80
2023-03-06T15:25:58.296Z,14.50
2023-03-06T15:28:35.175Z,14.40
2023-03-06T15:31:23.276Z,14.20
2023-03-06T15:34:18.810Z,14.30
2023-03-06T15:36:49.712Z,14.40
2023-03-06T15:39:36.213Z,14.30
2023-03-06T15:42:19.440Z,14.50
2023-03-06T15:44:51.256Z,14.80
2023-03-06T15:47:20.670Z,15.00
2023-03-06T15:49:52.408Z,15.20
2023-03-06T15:52:22.428Z,15.10
2023-03-06T15:54:53.454Z,14.80
2023-03-06T15:57:26.413Z,14.50
2023-03-06T15:59:57.343Z,14.20
2023-03-06T16:02:26.778Z,14.30
2023-03-06T16:04:56.314Z,14.70
2023-03-06T16:07:26.814Z,14.80
2023-03-06T16:09:58.611Z,14.70
2023-03-06T16:12:27.766Z,14.70
2023-03-06T16:14:58.154Z,14.40
2023-03-06T16:17:27.324Z,14.20
2023-03-06T16:19:56.342Z,14.40
2023-03-06T16:22:25.601Z,14.50
2023-03-06T16:24:54.798Z,14.60
2023-03-06T16:27:25.877Z,14.40
2023-03-06T16:29:54.924Z,14.40
2023-03-06T16:32:28.385Z,14.00
2023-03-06T16:34:58.011Z,13.90
2023-03-06T16:37:27.239Z,14.00
2023-03-06T16:39:56.312Z,14.00
2023-03-06T16:42:27.004Z,14.10
2023-03-06T16:44:56.741Z,14.20
2023-03-06T16:47:26.081Z,14.00
2023-03-06T16:49:58.214Z,13.90
2023-03-06T16:52:27.609Z,13.80
2023-03-06T16:54:56.707Z,13.70
2023-03-06T16:57:31.704Z,13.90
2023-03-06T17:00:01.464Z,13.80
2023-03-06T17:02:30.750Z,13.80
2023-03-06T17:04:59.835Z,13.60
2023-03-06T17:07:29.650Z,13.70
2023-03-06T17:09:58.879Z,13.50
2023-03-06T17:12:29.592Z,13.50
2023-03-06T17:14:58.807Z,13.70
2023-03-06T17:17:27.797Z,13.70
2023-03-06T17:19:56.933Z,13.70
2023-03-06T17:22:27.476Z,13.50
2023-03-06T17:24:56.839Z,13.30
2023-03-06T17:27:25.925Z,13.20
2023-03-06T17:29:58.733Z,13.40
2023-03-06T17:32:29.091Z,13.20
2023-03-06T17:34:58.343Z,13.20
2023-03-06T17:37:27.565Z,13.30
2023-03-06T17:39:57.287Z,13.30
2023-03-06T17:42:26.333Z,13.40
2023-03-06T17:44:57.563Z,13.40
2023-03-06T17:47:26.713Z,13.30
2023-03-06T17:49:55.767Z,13.20
2023-03-06T17:52:25.216Z,13.20
2023-03-06T17:54:54.240Z,13.20
2023-03-06T17:57:23.439Z,13.20
2023-03-06T17:59:53.204Z,13.30
2023-03-06T18:02:24.524Z,13.50
2023-03-06T18:04:53.633Z,13.40
2023-03-06T18:07:23.209Z,13.50
2023-03-06T18:09:52.245Z,13.40
2023-03-06T18:12:21.383Z,13.30
2023-03-06T18:14:51.115Z,13.20
2023-03-06T18:17:20.356Z,13.40
2023-03-06T18:19:52.350Z,13.30
2023-03-06T18:22:21.602Z,13.20
2023-03-06T18:24:50.964Z,13.10
2023-03-06T18:27:20.991Z,13.30
2023-03-06T18:29:52.324Z,13.30
2023-03-06T18:32:21.891Z,13.40
2023-03-06T18:34:52.311Z,13.50
2023-03-06T18:37:21.495Z,13.50
2023-03-06T18:39:50.659Z,13.60
2023-03-06T18:42:20.343Z,13.40
2023-03-06T18:44:49.298Z,13.50
2023-03-06T18:47:18.595Z,13.10
2023-03-06T18:49:47.897Z,12.90
2023-03-06T18:52:18.584Z,12.90
2023-03-06T18:54:50.062Z,12.80
2023-03-06T18:57:19.486Z,12.90
2023-03-06T18:59:48.557Z,13.00
2023-03-06T19:02:17.715Z,13.20
2023-03-06T19:04:46.917Z,13.40
2023-03-06T19:07:17.576Z,13.40
2023-03-06T19:09:46.657Z,13.50
2023-03-06T19:12:15.941Z,13.30
2023-03-06T19:14:45.372Z,13.30
2023-03-06T19:17:14.750Z,13.30
2023-03-06T19:19:43.800Z,13.30
2023-03-06T19:22:12.896Z,13.10
2023-03-06T19:24:43.467Z,13.00
2023-03-06T19:27:13.630Z,13.10
2023-03-06T19:29:42.973Z,13.20
2023-03-06T19:32:12.185Z,13.10
2023-03-06T19:34:41.614Z,13.20
2023-03-06T19:37:10.911Z,13.10
2023-03-06T19:39:39.894Z,13.00
2023-03-06T19:42:12.844Z,12.70
2023-03-06T19:44:42.923Z,12.50
2023-03-06T19:47:11.957Z,12.30
2023-03-06T19:49:41.579Z,12.10
2023-03-06T19:52:10.709Z,12.00
2023-03-06T19:54:40.186Z,12.00
2023-03-06T19:57:10.832Z,12.00
2023-03-06T19:59:40.034Z,11.90
2023-03-06T20:02:11.354Z,11.90
2023-03-06T20:04:40.509Z,11.90
2023-03-06T20:07:10.000Z,12.00
2023-03-06T20:09:39.332Z,11.90
2023-03-06T20:12:10.214Z,11.90
2023-03-06T20:14:39.869Z,11.90
2023-03-06T20:17:09.209Z,11.80
2023-03-06T20:19:38.654Z,11.80
2023-03-06T20:22:07.814Z,11.80
2023-03-06T20:24:37.332Z,11.90
2023-03-06T20:27:06.602Z,12.00
2023-03-06T20:29:37.265Z,11.90
2023-03-06T20:32:06.429Z,11.80
2023-03-06T20:34:35.539Z,11.90
2023-03-06T20:37:04.728Z,11.90
2023-03-06T20:39:34.242Z,12.00
2023-03-06T20:42:04.077Z,12.00
2023-03-06T20:44:33.341Z,12.00
2023-03-06T20:47:03.918Z,12.00
2023-03-06T20:49:33.283Z,11.80
2023-03-06T20:52:02.942Z,11.70
2023-03-06T20:54:31.959Z,11.80
2023-03-06T20:57:01.031Z,11.70
2023-03-06T20:59:30.468Z,11.60
2023-03-06T21:01:59.738Z,11.50
2023-03-06T21:04:30.239Z,11.50
2023-03-06T21:06:59.313Z,11.50
2023-03-06T21:09:28.303Z,11.50
2023-03-06T21:11:57.989Z,11.40
2023-03-06T21:14:27.001Z,11.30
2023-03-06T21:16:56.040Z,11.40
2023-03-06T21:19:25.341Z,11.40
2023-03-06T21:21:55.857Z,11.40
2023-03-06T21:24:24.839Z,11.40
2023-03-06T21:26:54.292Z,11.50
2023-03-06T21:29:23.323Z,11.40
2023-03-06T21:31:52.326Z,11.30
2023-03-06T21:34:21.880Z,11.20
2023-03-06T21:36:51.427Z,11.20
2023-03-06T21:39:21.895Z,11.20
2023-03-06T21:41:50.943Z,11.10
2023-03-06T21:44:19.931Z,11.10
2023-03-06T21:46:48.925Z,11.10
2023-03-06T21:49:18.366Z,11.10
2023-03-06T21:51:48.038Z,11.10
2023-03-06T21:54:17.269Z,11.00
2023-03-06T21:56:48.278Z,11.00
2023-03-06T21:59:17.475Z,11.10
2023-03-06T22:01:47.706Z,11.00
2023-03-06T22:04:17.008Z,11.00
2023-03-06T22:06:46.306Z,11.00
2023-03-06T22:09:19.116Z,11.00
2023-03-06T22:11:49.810Z,10.90
2023-03-06T22:14:19.119Z,10.90
2023-03-06T22:16:48.224Z,10.90
2023-03-06T22:19:17.603Z,10.90
2023-03-06T22:21:46.830Z,11.00
2023-03-06T22:24:15.976Z,10.90
2023-03-06T22:26:44.998Z,10.90
2023-03-06T22:29:15.919Z,11.10
2023-03-06T22:31:45.598Z,11.10
2023-03-06T22:34:14.818Z,11.00
2023-03-06T22:36:44.573Z,10.90
2023-03-06T22:39:14.756Z,10.90
2023-03-06T22:41:43.797Z,10.90
2023-03-06T22:44:17.970Z,10.90
2023-03-06T22:46:47.692Z,10.80
2023-03-06T22:49:17.109Z,10.80
2023-03-06T22:51:46.569Z,10.80
2023-03-06T22:54:15.563Z,10.80
2023-03-06T22:56:45.358Z,10.70
2023-03-06T22:59:16.521Z,10.80
2023-03-06T23:01:45.460Z,10.80
2023-03-06T23:04:14.631Z,10.80
2023-03-06T23:06:46.991Z,10.90
2023-03-06T23:09:20.794Z,10.80
2023-03-06T23:12:09.413Z,10.80
2023-03-06T23:14:58.957Z,10.80
2023-03-06T23:17:47.556Z,10.70
2023-03-06T23:20:35.238Z,10.70
2023-03-06T23:23:23.638Z,10.60
2023-03-06T23:25:53.295Z,10.70
2023-03-06T23:28:22.662Z,10.70
2023-03-06T23:30:53.678Z,10.60
2023-03-06T23:33:23.230Z,10.60
2023-03-06T23:35:53.026Z,10.60
2023-03-06T23:38:22.491Z,10.50
2023-03-06T23:40:51.738Z,10.50
2023-03-06T23:43:21.099Z,10.50
2023-03-06T23:45:58.975Z,10.50
2023-03-06T23:48:29.008Z,10.50
2023-03-06T23:50:58.948Z,10.50
2023-03-06T23:53:28.495Z,10.50
2023-03-06T23:55:57.749Z,10.50
2023-03-06T23:58:27.315Z,10.40
